Time;durP1;ratioP1;P1;durP2;ratioP2;P2;SDS_P1;SDS_P2;PMS_P1;PMS_P2;Temp;Humidity;BMP_temperature;BMP_pressure;BME280_temperature;BME280_humidity;BME280_pressure;Samples;Min_cycle;Max_cycle;Signal;HPM_P1;HPM_P2
2022/08/11 00:00:18;;;;;;;;;;;23.50;81.40;;;;;;8433968;28;19924;-69
2022/08/11 00:04:22;;;;;;;;;;;23.40;81.50;;;;;;8436454;28;19928;-69
2022/08/11 00:08:31;;;;;;;;;;;23.40;81.70;;;;;;8420614;28;19924;-69
2022/08/11 00:12:33;;;;;;;;;;;23.40;81.80;;;;;;8416457;28;20398;-69
2022/08/11 00:16:35;;;;;;;;;;;23.30;81.90;;;;;;8416906;28;20369;-69
2022/08/11 00:20:40;;;;;;;;;;;23.20;82.10;;;;;;8421392;28;19978;-69
2022/08/11 00:24:42;;;;;;;;;;;23.20;82.30;;;;;;8420666;28;20436;-69
2022/08/11 00:28:54;;;;;;;;;;;23.20;82.50;;;;;;8433575;28;19928;-69
2022/08/11 00:32:57;;;;;;;;;;;23.10;82.60;;;;;;8419901;28;19924;-69
2022/08/11 00:37:02;;;;;;;;;;;23.10;82.80;;;;;;8428325;28;19940;-69
2022/08/11 00:41:03;;;;;;;;;;;23.10;82.90;;;;;;8427377;28;19925;-69
2022/08/11 00:45:11;;;;;;;;;;;23.00;83.00;;;;;;8412658;28;20398;-69
2022/08/11 00:49:13;;;;;;;;;;;23.00;83.10;;;;;;8429765;28;19928;-69
2022/08/11 00:53:34;;;;;;;;;;;23.00;83.30;;;;;;8408215;28;19963;-69
2022/08/11 00:57:35;;;;;;;;;;;22.90;83.20;;;;;;8434172;28;20363;-69
2022/08/11 01:01:55;;;;;;;;;;;22.90;83.40;;;;;;8417578;28;19923;-69
2022/08/11 01:05:57;;;;;;;;;;;22.90;83.50;;;;;;8411000;28;19939;-69
2022/08/11 01:10:08;;;;;;;;;;;22.90;83.60;;;;;;8436122;28;19930;-69
2022/08/11 01:14:28;;;;;;;;;;;22.80;83.70;;;;;;8405430;28;19931;-69
2022/08/11 01:18:53;;;;;;;;;;;22.70;83.70;;;;;;8437347;28;19928;-69
2022/08/11 01:22:55;;;;;;;;;;;22.70;83.80;;;;;;8441974;28;19928;-69
2022/08/11 01:27:20;;;;;;;;;;;22.60;83.80;;;;;;8442526;28;20525;-69
2022/08/11 01:31:27;;;;;;;;;;;22.60;84.00;;;;;;8430438;28;19924;-69
2022/08/11 01:35:48;;;;;;;;;;;22.50;84.00;;;;;;8413376;28;19927;-69
2022/08/11 01:40:08;;;;;;;;;;;22.50;84.10;;;;;;8438774;28;19928;-69
2022/08/11 01:44:38;;;;;;;;;;;22.40;84.20;;;;;;8409978;28;19975;-69
2022/08/11 01:48:43;;;;;;;;;;;22.40;85.00;;;;;;8434647;28;19955;-69
2022/08/11 01:52:47;;;;;;;;;;;22.30;84.60;;;;;;8442598;28;19924;-69
2022/08/11 01:57:08;;;;;;;;;;;22.30;84.80;;;;;;8425542;28;19928;-69
2022/08/11 02:01:12;;;;;;;;;;;22.30;85.10;;;;;;8431674;28;20019;-69
2022/08/11 02:05:40;;;;;;;;;;;22.20;85.20;;;;;;8439628;28;20324;-69
2022/08/11 02:09:48;;;;;;;;;;;22.20;85.30;;;;;;8422333;28;20375;-69
2022/08/11 02:14:01;;;;;;;;;;;22.20;85.50;;;;;;8401969;28;19946;-69
2022/08/11 02:18:03;;;;;;;;;;;22.20;85.70;;;;;;8425906;28;20375;-69
2022/08/11 02:26:39;;;;;;;;;;;22.10;86.00;;;;;;8435022;28;19924;-69
2022/08/11 02:33:21;;;;;;;;;;;22.10;86.90;;;;;;8426575;28;20389;-69
2022/08/11 02:35:27;;;;;;;;;;;22.00;86.40;;;;;;8449632;28;19939;-69
2022/08/11 02:39:35;;;;;;;;;;;21.90;86.50;;;;;;8408902;28;19924;-69
2022/08/11 02:44:03;;;;;;;;;;;21.90;86.80;;;;;;8420201;28;19966;-69
2022/08/11 02:52:45;;;;;;;;;;;21.90;87.30;;;;;;8433260;28;19940;-69
2022/08/11 02:57:03;;;;;;;;;;;21.80;87.30;;;;;;8435739;28;19970;-69
2022/08/11 03:01:27;;;;;;;;;;;21.70;87.50;;;;;;8422214;28;19932;-69
2022/08/11 03:05:48;;;;;;;;;;;21.70;87.80;;;;;;8422682;28;19947;-69
2022/08/11 03:09:53;;;;;;;;;;;21.60;88.00;;;;;;8426013;28;19934;-69
2022/08/11 03:18:41;;;;;;;;;;;21.50;88.50;;;;;;8419325;28;19932;-69
2022/08/11 03:22:50;;;;;;;;;;;21.50;88.90;;;;;;8408865;28;19923;-69
2022/08/11 03:26:53;;;;;;;;;;;21.40;89.20;;;;;;8413544;28;20284;-69
2022/08/11 03:31:05;;;;;;;;;;;21.40;89.40;;;;;;8412932;28;19927;-69
2022/08/11 03:35:08;;;;;;;;;;;21.40;89.60;;;;;;8440149;28;20380;-69
2022/08/11 03:39:12;;;;;;;;;;;21.30;89.70;;;;;;8412375;28;19924;-69
2022/08/11 03:43:28;;;;;;;;;;;21.30;90.00;;;;;;8424093;28;19975;-69
2022/08/11 03:47:33;;;;;;;;;;;21.20;90.00;;;;;;8420276;28;19924;-69
2022/08/11 03:51:44;;;;;;;;;;;21.10;90.10;;;;;;8424447;28;19992;-69
2022/08/11 03:56:11;;;;;;;;;;;21.10;90.20;;;;;;8436268;28;19924;-69
2022/08/11 04:00:22;;;;;;;;;;;21.00;90.40;;;;;;8403461;28;20299;-69
2022/08/11 04:04:24;;;;;;;;;;;20.90;90.40;;;;;;8419281;28;20399;-69
2022/08/11 04:08:44;;;;;;;;;;;20.90;90.60;;;;;;8430854;28;19943;-69
2022/08/11 04:12:52;;;;;;;;;;;20.90;90.70;;;;;;8449425;27;19931;-69
2022/08/11 04:16:57;;;;;;;;;;;20.80;90.90;;;;;;8429038;28;19974;-69
2022/08/11 04:21:18;;;;;;;;;;;20.80;91.00;;;;;;8417026;28;20324;-69
2022/08/11 04:25:27;;;;;;;;;;;20.80;91.10;;;;;;8430437;28;19931;-69
2022/08/11 04:29:32;;;;;;;;;;;20.70;91.10;;;;;;8412293;28;19936;-69
2022/08/11 04:33:40;;;;;;;;;;;20.70;91.30;;;;;;8450172;28;20394;-69
2022/08/11 04:37:54;;;;;;;;;;;20.70;91.30;;;;;;8416620;28;19924;-69
2022/08/11 04:46:31;;;;;;;;;;;20.70;91.50;;;;;;8408093;28;19932;-69
2022/08/11 05:09:26;;;;;;;;;;;20.90;92.00;;;;;;8423973;28;20339;-69
2022/08/11 05:27:09;;;;;;;;;;;21.00;92.30;;;;;;8430969;28;19936;-69
2022/08/11 05:35:39;;;;;;;;;;;21.20;92.90;;;;;;8428091;28;19923;-69
2022/08/11 05:57:43;;;;;;;;;;;21.60;93.50;;;;;;8395263;28;19947;-69
2022/08/11 06:01:52;;;;;;;;;;;21.70;93.70;;;;;;8396217;28;20466;-69
2022/08/11 06:05:55;;;;;;;;;;;21.70;93.80;;;;;;8385658;28;19924;-69
2022/08/11 06:09:57;;;;;;;;;;;21.80;93.90;;;;;;8390294;28;19924;-69
2022/08/11 06:14:01;;;;;;;;;;;21.90;94.00;;;;;;8394741;28;19940;-69
2022/08/11 06:18:02;;;;;;;;;;;21.90;94.10;;;;;;8394151;28;19929;-69
2022/08/11 06:22:06;;;;;;;;;;;22.00;94.20;;;;;;8392574;28;19973;-68
2022/08/11 06:26:09;;;;;;;;;;;22.10;94.20;;;;;;8393464;28;19932;-69
2022/08/11 06:30:14;;;;;;;;;;;22.10;94.30;;;;;;8381141;28;19935;-69
2022/08/11 06:34:38;;;;;;;;;;;22.20;94.40;;;;;;8390277;28;19951;-69
2022/08/11 06:38:52;;;;;;;;;;;22.30;94.50;;;;;;8384996;28;19947;-69
2022/08/11 06:42:57;;;;;;;;;;;22.40;94.60;;;;;;8385923;28;19933;-69
2022/08/11 06:47:07;;;;;;;;;;;22.50;94.60;;;;;;8391076;28;19932;-69
2022/08/11 06:51:12;;;;;;;;;;;22.60;94.80;;;;;;8390247;28;19932;-69
2022/08/11 07:00:26;;;;;;;;;;;22.80;94.90;;;;;;8369678;28;19932;-69
2022/08/11 07:04:31;;;;;;;;;;;22.90;95.00;;;;;;8404592;27;20073;-69
2022/08/11 07:17:48;;;;;;;;;;;23.20;95.10;;;;;;8391454;28;19997;-69
2022/08/11 07:30:33;;;;;;;;;;;23.40;95.20;;;;;;8387801;28;19929;-69
2022/08/11 07:34:36;;;;;;;;;;;23.50;95.20;;;;;;8391070;28;19947;-69
2022/08/11 07:38:49;;;;;;;;;;;23.60;95.40;;;;;;8392314;28;19923;-69
2022/08/11 07:42:52;;;;;;;;;;;23.70;95.50;;;;;;8386897;28;19928;-69
2022/08/11 07:55:38;;;;;;;;;;;24.10;95.80;;;;;;8389156;28;19932;-69
2022/08/11 08:21:37;;;;;;;;;;;24.90;96.20;;;;;;8387399;28;20265;-69
2022/08/11 08:25:40;;;;;;;;;;;25.10;96.20;;;;;;8385816;28;19932;-69
2022/08/11 08:34:04;;;;;;;;;;;25.20;96.20;;;;;;8389254;28;19997;-69
2022/08/11 08:38:06;;;;;;;;;;;25.30;96.30;;;;;;8388025;28;19936;-69
2022/08/11 08:42:12;;;;;;;;;;;25.50;96.30;;;;;;8384660;28;19928;-69
2022/08/11 08:46:14;;;;;;;;;;;25.60;96.30;;;;;;8384355;28;20395;-69
2022/08/11 08:50:18;;;;;;;;;;;25.70;96.30;;;;;;8385457;28;19931;-69
2022/08/11 08:54:22;;;;;;;;;;;25.90;96.30;;;;;;8390381;28;19927;-69
2022/08/11 08:58:24;;;;;;;;;;;26.00;96.20;;;;;;8384317;28;19920;-69
2022/08/11 09:02:26;;;;;;;;;;;26.20;96.20;;;;;;8384671;28;19947;-69
2022/08/11 09:06:38;;;;;;;;;;;26.20;96.00;;;;;;8393111;28;19920;-69
2022/08/11 09:10:40;;;;;;;;;;;26.40;96.00;;;;;;8387205;28;20371;-69
2022/08/11 09:15:02;;;;;;;;;;;26.40;95.90;;;;;;8387062;28;20363;-69
2022/08/11 09:19:04;;;;;;;;;;;26.60;95.80;;;;;;8368767;28;19932;-69
2022/08/11 09:27:47;;;;;;;;;;;26.80;95.50;;;;;;8385564;28;19968;-69
2022/08/11 09:31:51;;;;;;;;;;;27.00;95.10;;;;;;8388041;28;19934;-69
2022/08/11 09:35:53;;;;;;;;;;;27.10;95.10;;;;;;8390136;28;19924;-69
2022/08/11 09:48:43;;;;;;;;;;;27.30;94.70;;;;;;8393415;28;19924;-69
2022/08/11 09:52:47;;;;;;;;;;;27.40;94.20;;;;;;8376103;28;19921;-69
2022/08/11 10:01:39;;;;;;;;;;;27.60;94.10;;;;;;8389531;28;20422;-69
2022/08/11 10:10:09;;;;;;;;;;;27.80;94.00;;;;;;8391596;28;19931;-69
2022/08/11 10:18:48;;;;;;;;;;;28.00;93.60;;;;;;8393821;28;19947;-69
2022/08/11 10:27:10;;;;;;;;;;;28.10;92.10;;;;;;8390851;28;20264;-69
2022/08/11 10:35:37;;;;;;;;;;;28.30;92.50;;;;;;8393716;28;19929;-69
2022/08/11 10:39:39;;;;;;;;;;;28.40;92.30;;;;;;8391609;28;19920;-69
2022/08/11 10:43:42;;;;;;;;;;;28.50;92.10;;;;;;8391485;28;20291;-69
2022/08/11 10:48:04;;;;;;;;;;;28.70;91.30;;;;;;8381853;28;19928;-69
2022/08/11 11:00:50;;;;;;;;;;;28.80;90.10;;;;;;8386737;28;20374;-69
2022/08/11 11:04:54;;;;;;;;;;;28.80;90.20;;;;;;8391746;28;19975;-69
2022/08/11 11:09:05;;;;;;;;;;;28.80;90.00;;;;;;8379595;28;19928;-69
2022/08/11 11:21:50;;;;;;;;;;;29.10;88.00;;;;;;8392297;28;20359;-69
2022/08/11 11:26:09;;;;;;;;;;;29.10;84.70;;;;;;8394078;28;19924;-69
2022/08/11 11:30:14;;;;;;;;;;;29.20;83.70;;;;;;8392714;28;20227;-69
2022/08/11 11:34:34;;;;;;;;;;;29.20;83.40;;;;;;8393363;28;19932;-69
2022/08/11 11:38:36;;;;;;;;;;;29.30;83.30;;;;;;8389641;28;19920;-69
2022/08/11 11:42:39;;;;;;;;;;;29.30;82.10;;;;;;8387560;28;19939;-69
2022/08/11 11:46:43;;;;;;;;;;;29.40;79.50;;;;;;8403284;27;20388;-69
2022/08/11 11:50:45;;;;;;;;;;;29.50;78.80;;;;;;8391233;28;20569;-69
2022/08/11 11:54:49;;;;;;;;;;;29.60;80.30;;;;;;8387624;28;19928;-69
2022/08/11 12:03:12;;;;;;;;;;;29.70;78.00;;;;;;8389253;28;19943;-70
2022/08/11 12:16:02;;;;;;;;;;;29.70;75.50;;;;;;8390206;28;19932;-69
2022/08/11 12:20:25;;;;;;;;;;;29.80;76.40;;;;;;8388654;28;20011;-69
2022/08/11 12:28:57;;;;;;;;;;;29.90;76.30;;;;;;8389674;28;25068;-70
2022/08/11 12:32:58;;;;;;;;;;;29.90;76.70;;;;;;8390741;28;20356;-70
2022/08/11 12:37:04;;;;;;;;;;;29.90;74.00;;;;;;8386365;28;19926;-69
2022/08/11 12:45:26;;;;;;;;;;;30.00;74.20;;;;;;8384014;28;20382;-69
2022/08/11 12:53:55;;;;;;;;;;;29.90;71.90;;;;;;8374063;28;19984;-69
2022/08/11 12:58:15;;;;;;;;;;;29.90;72.50;;;;;;8386681;28;19950;-69
2022/08/11 13:06:44;;;;;;;;;;;30.00;72.70;;;;;;8388185;28;19924;-69
2022/08/11 13:15:26;;;;;;;;;;;30.10;72.50;;;;;;8336892;28;19924;-69
2022/08/11 13:19:27;;;;;;;;;;;30.20;72.30;;;;;;8395618;28;19920;-69
2022/08/11 13:23:29;;;;;;;;;;;30.20;72.20;;;;;;8405652;28;19920;-69
2022/08/11 13:27:31;;;;;;;;;;;30.20;72.20;;;;;;8390265;28;19924;-69
2022/08/11 13:31:33;;;;;;;;;;;30.30;71.50;;;;;;8394631;28;19924;-69
2022/08/11 13:35:35;;;;;;;;;;;30.40;71.60;;;;;;8393805;28;19940;-69
2022/08/11 13:39:39;;;;;;;;;;;30.40;71.50;;;;;;8389755;28;19924;-69
2022/08/11 13:43:43;;;;;;;;;;;30.40;70.60;;;;;;8395812;28;19950;-69
2022/08/11 13:47:45;;;;;;;;;;;30.50;70.70;;;;;;8376611;28;19920;-69
2022/08/11 13:51:47;;;;;;;;;;;30.50;70.50;;;;;;8394357;28;20316;-69
2022/08/11 13:55:49;;;;;;;;;;;30.60;70.30;;;;;;8389985;28;19920;-69
2022/08/11 14:00:08;;;;;;;;;;;30.60;70.30;;;;;;8390640;28;19925;-69
2022/08/11 14:04:15;;;;;;;;;;;30.70;70.60;;;;;;8391357;28;19932;-69
2022/08/11 14:08:34;;;;;;;;;;;30.70;70.60;;;;;;8393993;28;24064;-70
2022/08/11 14:17:06;;;;;;;;;;;30.80;69.80;;;;;;8392625;28;19931;-70
2022/08/11 14:25:30;;;;;;;;;;;30.90;69.70;;;;;;8391397;28;20280;-69
2022/08/11 14:29:52;;;;;;;;;;;30.80;69.20;;;;;;8391688;28;25127;-69
2022/08/11 14:33:56;;;;;;;;;;;30.90;68.80;;;;;;8371982;28;19928;-70
2022/08/11 14:38:01;;;;;;;;;;;30.90;68.60;;;;;;8390219;28;19924;-69
2022/08/11 14:50:48;;;;;;;;;;;31.00;68.20;;;;;;8390824;28;19920;-69
2022/08/11 14:59:11;;;;;;;;;;;31.10;67.60;;;;;;8391660;28;19924;-69
2022/08/11 15:03:14;;;;;;;;;;;31.20;67.40;;;;;;8389944;28;19955;-69
2022/08/11 15:07:16;;;;;;;;;;;31.30;67.60;;;;;;8393767;28;19974;-70
2022/08/11 15:24:32;;;;;;;;;;;31.40;65.60;;;;;;8384469;28;20411;-70
2022/08/11 15:37:42;;;;;;;;;;;31.60;64.20;;;;;;8390549;28;19924;-70
2022/08/11 15:46:12;;;;;;;;;;;31.70;63.70;;;;;;8386176;28;19924;-70
2022/08/11 15:50:16;;;;;;;;;;;31.90;63.10;;;;;;8391892;28;20340;-70
2022/08/11 15:54:21;;;;;;;;;;;32.10;62.70;;;;;;8392388;28;19940;-70
2022/08/11 16:07:10;;;;;;;;;;;33.40;62.20;;;;;;8389485;28;19927;-69
2022/08/11 16:11:12;;;;;;;;;;;33.90;62.30;;;;;;8388623;28;19924;-70
2022/08/11 16:19:35;;;;;;;2.97;1.60;;;34.70;63.80;;;;;;8384396;28;20048;-70
2022/08/11 16:23:39;;;;;;;;;;;35.10;65.20;;;;;;8388463;28;20056;-69
2022/08/11 16:27:42;;;;;;;;;;;35.40;66.00;;;;;;8390396;28;19920;-70
2022/08/11 16:32:15;;;;;;;;;;;35.70;65.30;;;;;;8388501;28;19978;-70
2022/08/11 16:40:29;;;;;;;;;;;35.90;63.80;;;;;;8387561;28;19936;-70
2022/08/11 16:48:52;;;;;;;;;;;36.00;61.30;;;;;;8387374;28;19923;-70
2022/08/11 16:52:54;;;;;;;;;;;36.00;60.20;;;;;;8392739;28;19924;-70
2022/08/11 16:56:56;;;;;;;;;;;35.90;59.40;;;;;;8393774;28;24070;-70
2022/08/11 17:01:20;;;;;;;;;;;35.90;59.20;;;;;;8394550;28;20288;-70
2022/08/11 17:14:48;;;;;;;;;;;35.80;57.60;;;;;;8396557;28;24093;-70
2022/08/11 17:18:57;;;;;;;;;;;35.60;56.50;;;;;;8390324;28;19924;-70
2022/08/11 17:27:22;;;;;;;;;;;35.10;55.00;;;;;;8391251;28;19936;-70
2022/08/11 17:35:46;;;;;;;;;;;34.60;54.40;;;;;;8387205;28;19920;-70
2022/08/11 17:39:49;;;;;;;3.90;1.80;;;34.30;53.90;;;;;;8392313;28;19927;-69
2022/08/11 17:48:24;;;;;;;5.40;1.50;;;33.70;52.80;;;;;;8390145;28;20052;-70
2022/08/11 18:01:22;;;;;;;;;;;32.90;52.10;;;;;;8392153;28;20015;-70
2022/08/11 18:05:26;;;;;;;;;;;32.70;52.00;;;;;;8393213;28;19978;-70
